KPQI/PQI METAR and TAF weather

Enter ICAO airport designator
Station Type Date Time Source
KPQI METAR 2021/05/10 00:56 UTC NOAA

KPQI 100056Z AUTO 31005KT 10SM SCT090 11/M01 A2980 RMK AO2 SLP119 T01111006


Station Type Date Time Source
KPQI Decoded METAR 2021/05/10 00:56 UTC NOAA

Presque Isle, ME, United States (KPQI) 46-41N 068-03W 146M
May 09, 2021 - 08:56 PM EDT / 2021.05.10 0056 UTC
Wind: from the NW (310 degrees) at 6 MPH (5 KT):0
Visibility: 10 mile(s):0
Sky conditions: partly cloudy
Temperature: 52.0 F (11.1 C)
Dew Point: 30.9 F (-0.6 C)
Relative Humidity: 44%
Pressure (altimeter): 29.8 in. Hg (1009 hPa)
ob: KPQI 100056Z AUTO 31005KT 10SM SCT090 11/M01 A2980 RMK AO2 SLP119 T01111006
cycle: 1

Station Type Date Time Source
KPQI TAF 2021/05/09 18:36 UTC NOAA

TAF KPQI 091734Z 0918/1018 32012G22KT P6SM VCSH BKN060
FM092200 32008G16KT P6SM BKN060
FM100000 32006KT P6SM SCT060
FM101500 33008KT P6SM VCSH BKN050

Example: see airport list